sensor_id;sensor_type;location;lat;lon;timestamp;P1;durP1;ratioP1;P2;durP2;ratioP2
54460;SDS011;69977;49.414;11.010;2023-11-19T00:00:06;3.00;;;2.80;;
54460;SDS011;69977;49.414;11.010;2023-11-19T00:02:37;2.70;;;2.50;;
54460;SDS011;69977;49.414;11.010;2023-11-19T00:05:04;6.03;;;3.20;;
54460;SDS011;69977;49.414;11.010;2023-11-19T00:07:34;4.40;;;2.63;;
54460;SDS011;69977;49.414;11.010;2023-11-19T00:10:01;2.50;;;2.30;;
54460;SDS011;69977;49.414;11.010;2023-11-19T00:12:29;3.00;;;2.80;;
54460;SDS011;69977;49.414;11.010;2023-11-19T00:14:55;2.70;;;2.50;;
54460;SDS011;69977;49.414;11.010;2023-11-19T00:17:21;3.10;;;2.90;;
54460;SDS011;69977;49.414;11.010;2023-11-19T00:19:46;2.63;;;2.47;;
54460;SDS011;69977;49.414;11.010;2023-11-19T00:22:12;3.37;;;2.33;;
54460;SDS011;69977;49.414;11.010;2023-11-19T00:24:38;2.57;;;2.37;;
54460;SDS011;69977;49.414;11.010;2023-11-19T00:27:04;2.60;;;2.40;;
54460;SDS011;69977;49.414;11.010;2023-11-19T00:29:30;2.50;;;2.30;;
54460;SDS011;69977;49.414;11.010;2023-11-19T00:31:55;2.73;;;2.53;;
54460;SDS011;69977;49.414;11.010;2023-11-19T00:34:21;3.20;;;2.50;;
54460;SDS011;69977;49.414;11.010;2023-11-19T00:36:47;2.63;;;2.43;;
54460;SDS011;69977;49.414;11.010;2023-11-19T00:39:14;2.70;;;2.50;;
54460;SDS011;69977;49.414;11.010;2023-11-19T00:41:40;3.10;;;2.70;;
54460;SDS011;69977;49.414;11.010;2023-11-19T00:44:06;2.73;;;2.53;;
54460;SDS011;69977;49.414;11.010;2023-11-19T00:46:32;2.60;;;2.40;;
54460;SDS011;69977;49.414;11.010;2023-11-19T00:48:58;2.70;;;2.50;;
54460;SDS011;69977;49.414;11.010;2023-11-19T00:51:25;2.97;;;2.57;;
54460;SDS011;69977;49.414;11.010;2023-11-19T00:53:51;3.43;;;2.90;;
54460;SDS011;69977;49.414;11.010;2023-11-19T00:56:18;2.60;;;2.50;;
54460;SDS011;69977;49.414;11.010;2023-11-19T00:58:44;2.90;;;2.70;;
54460;SDS011;69977;49.414;11.010;2023-11-19T01:01:14;2.83;;;2.63;;
54460;SDS011;69977;49.414;11.010;2023-11-19T01:03:39;2.60;;;2.40;;
54460;SDS011;69977;49.414;11.010;2023-11-19T01:06:05;2.43;;;2.33;;
54460;SDS011;69977;49.414;11.010;2023-11-19T01:08:32;3.60;;;2.40;;
54460;SDS011;69977;49.414;11.010;2023-11-19T01:10:57;2.77;;;2.57;;
54460;SDS011;69977;49.414;11.010;2023-11-19T01:13:25;2.77;;;2.57;;
54460;SDS011;69977;49.414;11.010;2023-11-19T01:15:50;2.63;;;2.43;;
54460;SDS011;69977;49.414;11.010;2023-11-19T01:18:16;2.60;;;2.50;;
54460;SDS011;69977;49.414;11.010;2023-11-19T01:20:42;2.60;;;2.40;;
54460;SDS011;69977;49.414;11.010;2023-11-19T01:23:08;2.83;;;2.60;;
54460;SDS011;69977;49.414;11.010;2023-11-19T01:25:34;3.03;;;2.63;;
54460;SDS011;69977;49.414;11.010;2023-11-19T01:28:00;2.40;;;2.30;;
54460;SDS011;69977;49.414;11.010;2023-11-19T01:30:27;2.67;;;2.57;;
54460;SDS011;69977;49.414;11.010;2023-11-19T01:32:53;2.67;;;2.47;;
54460;SDS011;69977;49.414;11.010;2023-11-19T01:35:19;2.63;;;2.47;;
54460;SDS011;69977;49.414;11.010;2023-11-19T01:37:45;2.90;;;2.47;;
54460;SDS011;69977;49.414;11.010;2023-11-19T01:40:11;3.60;;;2.83;;
54460;SDS011;69977;49.414;11.010;2023-11-19T01:42:37;2.53;;;2.33;;
54460;SDS011;69977;49.414;11.010;2023-11-19T01:45:04;2.67;;;2.47;;
54460;SDS011;69977;49.414;11.010;2023-11-19T01:47:32;3.20;;;2.80;;
54460;SDS011;69977;49.414;11.010;2023-11-19T01:49:58;2.90;;;2.70;;
54460;SDS011;69977;49.414;11.010;2023-11-19T01:52:25;2.80;;;2.60;;
54460;SDS011;69977;49.414;11.010;2023-11-19T01:54:52;2.90;;;2.70;;
54460;SDS011;69977;49.414;11.010;2023-11-19T01:57:20;2.73;;;2.53;;
54460;SDS011;69977;49.414;11.010;2023-11-19T01:59:48;2.70;;;2.50;;
54460;SDS011;69977;49.414;11.010;2023-11-19T02:02:17;3.37;;;3.10;;
54460;SDS011;69977;49.414;11.010;2023-11-19T02:04:46;2.77;;;2.57;;
54460;SDS011;69977;49.414;11.010;2023-11-19T02:07:14;2.57;;;2.37;;
54460;SDS011;69977;49.414;11.010;2023-11-19T02:09:43;2.70;;;2.50;;
54460;SDS011;69977;49.414;11.010;2023-11-19T02:12:09;3.10;;;2.90;;
54460;SDS011;69977;49.414;11.010;2023-11-19T02:14:37;2.73;;;2.40;;
54460;SDS011;69977;49.414;11.010;2023-11-19T02:17:03;2.80;;;2.60;;
54460;SDS011;69977;49.414;11.010;2023-11-19T02:19:30;3.00;;;2.80;;
54460;SDS011;69977;49.414;11.010;2023-11-19T02:21:56;2.93;;;2.73;;
54460;SDS011;69977;49.414;11.010;2023-11-19T02:24:22;2.77;;;2.57;;
54460;SDS011;69977;49.414;11.010;2023-11-19T02:29:21;3.07;;;2.87;;
54460;SDS011;69977;49.414;11.010;2023-11-19T02:31:47;3.67;;;3.00;;
54460;SDS011;69977;49.414;11.010;2023-11-19T02:34:13;3.80;;;3.50;;
54460;SDS011;69977;49.414;11.010;2023-11-19T02:36:39;2.83;;;2.63;;
54460;SDS011;69977;49.414;11.010;2023-11-19T02:39:07;3.03;;;2.83;;
54460;SDS011;69977;49.414;11.010;2023-11-19T02:41:36;11.83;;;4.50;;
54460;SDS011;69977;49.414;11.010;2023-11-19T02:44:07;3.20;;;3.00;;
54460;SDS011;69977;49.414;11.010;2023-11-19T02:46:33;3.40;;;3.10;;
54460;SDS011;69977;49.414;11.010;2023-11-19T02:48:59;3.13;;;2.93;;
54460;SDS011;69977;49.414;11.010;2023-11-19T02:51:25;3.30;;;3.00;;
54460;SDS011;69977;49.414;11.010;2023-11-19T02:53:52;3.13;;;2.93;;
54460;SDS011;69977;49.414;11.010;2023-11-19T02:56:18;4.47;;;3.73;;
54460;SDS011;69977;49.414;11.010;2023-11-19T02:58:54;3.20;;;3.00;;
54460;SDS011;69977;49.414;11.010;2023-11-19T03:01:21;3.30;;;3.10;;
54460;SDS011;69977;49.414;11.010;2023-11-19T03:03:59;4.00;;;3.70;;
54460;SDS011;69977;49.414;11.010;2023-11-19T03:06:27;4.50;;;3.63;;
54460;SDS011;69977;49.414;11.010;2023-11-19T03:08:54;3.57;;;3.37;;
54460;SDS011;69977;49.414;11.010;2023-11-19T03:11:20;3.97;;;3.57;;
54460;SDS011;69977;49.414;11.010;2023-11-19T03:13:46;3.87;;;3.53;;
54460;SDS011;69977;49.414;11.010;2023-11-19T03:16:12;3.93;;;3.63;;
54460;SDS011;69977;49.414;11.010;2023-11-19T03:18:38;3.70;;;3.43;;
54460;SDS011;69977;49.414;11.010;2023-11-19T03:21:06;3.77;;;3.57;;
54460;SDS011;69977;49.414;11.010;2023-11-19T03:23:33;4.17;;;3.77;;
54460;SDS011;69977;49.414;11.010;2023-11-19T03:25:59;4.80;;;3.73;;
54460;SDS011;69977;49.414;11.010;2023-11-19T03:28:28;4.00;;;3.70;;
54460;SDS011;69977;49.414;11.010;2023-11-19T03:30:54;4.63;;;4.23;;
54460;SDS011;69977;49.414;11.010;2023-11-19T03:33:20;4.20;;;3.90;;
54460;SDS011;69977;49.414;11.010;2023-11-19T03:35:46;4.33;;;3.90;;
54460;SDS011;69977;49.414;11.010;2023-11-19T03:38:12;5.13;;;4.40;;
54460;SDS011;69977;49.414;11.010;2023-11-19T03:40:38;4.30;;;3.90;;
54460;SDS011;69977;49.414;11.010;2023-11-19T03:43:04;4.20;;;3.80;;
54460;SDS011;69977;49.414;11.010;2023-11-19T03:45:30;4.33;;;4.00;;
54460;SDS011;69977;49.414;11.010;2023-11-19T03:47:56;4.80;;;4.40;;
54460;SDS011;69977;49.414;11.010;2023-11-19T03:50:22;4.60;;;4.20;;
54460;SDS011;69977;49.414;11.010;2023-11-19T03:52:48;4.90;;;4.50;;
54460;SDS011;69977;49.414;11.010;2023-11-19T03:55:14;4.90;;;4.40;;
54460;SDS011;69977;49.414;11.010;2023-11-19T03:57:40;4.97;;;4.53;;
54460;SDS011;69977;49.414;11.010;2023-11-19T04:00:06;5.40;;;4.90;;
54460;SDS011;69977;49.414;11.010;2023-11-19T04:02:39;5.27;;;4.87;;
54460;SDS011;69977;49.414;11.010;2023-11-19T04:05:05;5.40;;;4.90;;
54460;SDS011;69977;49.414;11.010;2023-11-19T04:07:32;5.13;;;4.67;;
54460;SDS011;69977;49.414;11.010;2023-11-19T04:09:57;5.10;;;4.60;;
54460;SDS011;69977;49.414;11.010;2023-11-19T04:12:24;4.90;;;4.50;;
54460;SDS011;69977;49.414;11.010;2023-11-19T04:14:50;5.03;;;4.60;;
54460;SDS011;69977;49.414;11.010;2023-11-19T04:17:17;5.57;;;5.10;;
54460;SDS011;69977;49.414;11.010;2023-11-19T04:19:43;5.97;;;5.37;;
54460;SDS011;69977;49.414;11.010;2023-11-19T04:22:09;5.43;;;4.43;;
54460;SDS011;69977;49.414;11.010;2023-11-19T04:24:34;5.63;;;5.13;;
54460;SDS011;69977;49.414;11.010;2023-11-19T04:27:00;5.23;;;4.83;;
54460;SDS011;69977;49.414;11.010;2023-11-19T04:29:26;5.43;;;4.93;;
54460;SDS011;69977;49.414;11.010;2023-11-19T04:31:52;5.10;;;4.70;;
54460;SDS011;69977;49.414;11.010;2023-11-19T04:34:18;4.90;;;4.50;;
54460;SDS011;69977;49.414;11.010;2023-11-19T04:36:44;5.23;;;4.83;;
54460;SDS011;69977;49.414;11.010;2023-11-19T04:39:10;5.30;;;4.87;;
54460;SDS011;69977;49.414;11.010;2023-11-19T04:41:51;5.70;;;5.20;;
54460;SDS011;69977;49.414;11.010;2023-11-19T04:44:18;5.60;;;5.10;;
54460;SDS011;69977;49.414;11.010;2023-11-19T04:46:44;5.43;;;4.93;;
54460;SDS011;69977;49.414;11.010;2023-11-19T04:49:11;6.33;;;5.73;;
54460;SDS011;69977;49.414;11.010;2023-11-19T04:51:40;6.33;;;5.73;;
54460;SDS011;69977;49.414;11.010;2023-11-19T04:54:09;5.57;;;5.07;;
54460;SDS011;69977;49.414;11.010;2023-11-19T04:56:36;6.00;;;5.37;;
54460;SDS011;69977;49.414;11.010;2023-11-19T04:59:03;7.67;;;5.50;;
54460;SDS011;69977;49.414;11.010;2023-11-19T05:01:31;6.63;;;5.63;;
54460;SDS011;69977;49.414;11.010;2023-11-19T05:04:00;6.30;;;5.70;;
54460;SDS011;69977;49.414;11.010;2023-11-19T05:06:27;6.23;;;5.63;;
54460;SDS011;69977;49.414;11.010;2023-11-19T05:08:54;6.30;;;5.70;;
54460;SDS011;69977;49.414;11.010;2023-11-19T05:11:21;6.30;;;5.70;;
54460;SDS011;69977;49.414;11.010;2023-11-19T05:13:47;5.97;;;5.40;;
54460;SDS011;69977;49.414;11.010;2023-11-19T05:16:13;6.23;;;5.63;;
54460;SDS011;69977;49.414;11.010;2023-11-19T05:18:42;5.20;;;4.73;;
54460;SDS011;69977;49.414;11.010;2023-11-19T05:21:08;5.93;;;5.30;;
54460;SDS011;69977;49.414;11.010;2023-11-19T05:23:34;5.97;;;5.37;;
54460;SDS011;69977;49.414;11.010;2023-11-19T05:26:01;6.00;;;5.50;;
54460;SDS011;69977;49.414;11.010;2023-11-19T05:28:27;5.23;;;4.80;;
54460;SDS011;69977;49.414;11.010;2023-11-19T05:30:52;5.97;;;5.47;;
54460;SDS011;69977;49.414;11.010;2023-11-19T05:33:18;5.83;;;5.23;;
54460;SDS011;69977;49.414;11.010;2023-11-19T05:35:44;5.33;;;4.83;;
54460;SDS011;69977;49.414;11.010;2023-11-19T05:38:10;5.13;;;4.73;;
54460;SDS011;69977;49.414;11.010;2023-11-19T05:40:36;5.60;;;5.10;;
54460;SDS011;69977;49.414;11.010;2023-11-19T05:43:03;5.73;;;5.13;;
54460;SDS011;69977;49.414;11.010;2023-11-19T05:45:30;5.10;;;4.70;;
54460;SDS011;69977;49.414;11.010;2023-11-19T05:47:57;5.30;;;4.80;;
54460;SDS011;69977;49.414;11.010;2023-11-19T05:50:23;4.83;;;4.43;;
54460;SDS011;69977;49.414;11.010;2023-11-19T05:52:49;5.00;;;4.60;;
54460;SDS011;69977;49.414;11.010;2023-11-19T05:55:15;5.90;;;4.73;;
54460;SDS011;69977;49.414;11.010;2023-11-19T05:57:41;5.10;;;4.60;;
54460;SDS011;69977;49.414;11.010;2023-11-19T06:00:07;5.60;;;4.90;;
54460;SDS011;69977;49.414;11.010;2023-11-19T06:02:42;7.00;;;5.00;;
54460;SDS011;69977;49.414;11.010;2023-11-19T06:05:08;5.40;;;4.87;;
54460;SDS011;69977;49.414;11.010;2023-11-19T06:07:34;4.93;;;4.53;;
54460;SDS011;69977;49.414;11.010;2023-11-19T06:10:02;5.30;;;4.90;;
54460;SDS011;69977;49.414;11.010;2023-11-19T06:12:30;4.37;;;4.07;;
54460;SDS011;69977;49.414;11.010;2023-11-19T06:14:57;4.73;;;4.33;;
54460;SDS011;69977;49.414;11.010;2023-11-19T06:17:22;5.20;;;4.70;;
54460;SDS011;69977;49.414;11.010;2023-11-19T06:19:48;4.63;;;4.23;;
54460;SDS011;69977;49.414;11.010;2023-11-19T06:22:14;4.70;;;4.30;;
54460;SDS011;69977;49.414;11.010;2023-11-19T06:24:40;5.70;;;4.50;;
54460;SDS011;69977;49.414;11.010;2023-11-19T06:27:05;5.33;;;4.83;;
54460;SDS011;69977;49.414;11.010;2023-11-19T06:29:31;5.87;;;4.50;;
54460;SDS011;69977;49.414;11.010;2023-11-19T06:31:57;4.80;;;4.40;;
54460;SDS011;69977;49.414;11.010;2023-11-19T06:34:22;4.60;;;4.20;;
54460;SDS011;69977;49.414;11.010;2023-11-19T06:36:48;4.57;;;4.10;;
54460;SDS011;69977;49.414;11.010;2023-11-19T06:39:14;3.90;;;3.60;;
54460;SDS011;69977;49.414;11.010;2023-11-19T06:41:44;3.47;;;3.17;;
54460;SDS011;69977;49.414;11.010;2023-11-19T06:44:11;4.27;;;3.87;;
54460;SDS011;69977;49.414;11.010;2023-11-19T06:46:37;3.73;;;3.43;;
54460;SDS011;69977;49.414;11.010;2023-11-19T06:49:03;3.13;;;2.70;;
54460;SDS011;69977;49.414;11.010;2023-11-19T06:51:28;3.80;;;2.33;;
54460;SDS011;69977;49.414;11.010;2023-11-19T06:53:55;1.70;;;1.60;;
54460;SDS011;69977;49.414;11.010;2023-11-19T06:56:21;1.67;;;1.57;;
54460;SDS011;69977;49.414;11.010;2023-11-19T06:58:47;1.60;;;1.50;;
54460;SDS011;69977;49.414;11.010;2023-11-19T07:01:14;4.70;;;1.20;;
54460;SDS011;69977;49.414;11.010;2023-11-19T07:03:40;1.80;;;1.30;;
54460;SDS011;69977;49.414;11.010;2023-11-19T07:06:06;1.10;;;1.00;;
54460;SDS011;69977;49.414;11.010;2023-11-19T07:08:33;0.87;;;0.87;;
54460;SDS011;69977;49.414;11.010;2023-11-19T07:10:59;0.90;;;0.90;;
54460;SDS011;69977;49.414;11.010;2023-11-19T07:13:25;0.30;;;0.30;;
54460;SDS011;69977;49.414;11.010;2023-11-19T07:15:53;0.50;;;0.50;;
54460;SDS011;69977;49.414;11.010;2023-11-19T07:18:21;0.30;;;0.30;;
54460;SDS011;69977;49.414;11.010;2023-11-19T07:20:47;0.50;;;0.50;;
54460;SDS011;69977;49.414;11.010;2023-11-19T07:23:13;0.33;;;0.33;;
54460;SDS011;69977;49.414;11.010;2023-11-19T07:25:42;0.30;;;0.30;;
54460;SDS011;69977;49.414;11.010;2023-11-19T07:28:12;1.30;;;0.50;;
54460;SDS011;69977;49.414;11.010;2023-11-19T07:30:38;1.47;;;0.40;;
54460;SDS011;69977;49.414;11.010;2023-11-19T07:33:04;1.47;;;0.50;;
54460;SDS011;69977;49.414;11.010;2023-11-19T07:35:31;0.50;;;0.50;;
54460;SDS011;69977;49.414;11.010;2023-11-19T07:37:57;0.93;;;0.60;;
54460;SDS011;69977;49.414;11.010;2023-11-19T07:40:23;0.50;;;0.50;;
54460;SDS011;69977;49.414;11.010;2023-11-19T07:42:49;0.30;;;0.30;;
54460;SDS011;69977;49.414;11.010;2023-11-19T07:45:15;0.50;;;0.50;;
54460;SDS011;69977;49.414;11.010;2023-11-19T07:47:41;0.73;;;0.50;;
54460;SDS011;69977;49.414;11.010;2023-11-19T07:50:09;0.43;;;0.43;;
54460;SDS011;69977;49.414;11.010;2023-11-19T07:52:36;0.40;;;0.40;;
54460;SDS011;69977;49.414;11.010;2023-11-19T07:55:02;1.63;;;0.50;;
54460;SDS011;69977;49.414;11.010;2023-11-19T07:57:30;0.70;;;0.70;;
54460;SDS011;69977;49.414;11.010;2023-11-19T07:59:59;0.60;;;0.60;;
54460;SDS011;69977;49.414;11.010;2023-11-19T08:02:28;0.70;;;0.70;;
54460;SDS011;69977;49.414;11.010;2023-11-19T08:04:53;0.67;;;0.67;;
54460;SDS011;69977;49.414;11.010;2023-11-19T08:07:20;1.57;;;0.60;;
54460;SDS011;69977;49.414;11.010;2023-11-19T08:09:47;0.83;;;0.83;;
54460;SDS011;69977;49.414;11.010;2023-11-19T08:12:13;1.10;;;1.00;;
54460;SDS011;69977;49.414;11.010;2023-11-19T08:14:41;1.37;;;1.10;;
54460;SDS011;69977;49.414;11.010;2023-11-19T08:17:07;2.50;;;1.13;;
54460;SDS011;69977;49.414;11.010;2023-11-19T08:19:32;2.90;;;0.90;;
54460;SDS011;69977;49.414;11.010;2023-11-19T08:21:58;0.97;;;0.90;;
54460;SDS011;69977;49.414;11.010;2023-11-19T08:24:24;1.00;;;1.00;;
54460;SDS011;69977;49.414;11.010;2023-11-19T08:26:50;0.90;;;0.90;;
54460;SDS011;69977;49.414;11.010;2023-11-19T08:29:15;1.57;;;1.10;;
54460;SDS011;69977;49.414;11.010;2023-11-19T08:31:42;1.93;;;0.93;;
54460;SDS011;69977;49.414;11.010;2023-11-19T08:34:08;0.80;;;0.80;;
54460;SDS011;69977;49.414;11.010;2023-11-19T08:36:34;1.00;;;0.80;;
54460;SDS011;69977;49.414;11.010;2023-11-19T08:39:00;1.30;;;0.90;;
54460;SDS011;69977;49.414;11.010;2023-11-19T08:41:26;1.53;;;0.77;;
54460;SDS011;69977;49.414;11.010;2023-11-19T08:43:52;1.80;;;1.00;;
54460;SDS011;69977;49.414;11.010;2023-11-19T08:46:18;1.27;;;1.17;;
54460;SDS011;69977;49.414;11.010;2023-11-19T08:48:44;1.03;;;0.90;;
54460;SDS011;69977;49.414;11.010;2023-11-19T08:51:11;0.90;;;0.90;;
54460;SDS011;69977;49.414;11.010;2023-11-19T08:53:37;1.93;;;0.90;;
54460;SDS011;69977;49.414;11.010;2023-11-19T08:56:03;1.50;;;0.80;;
54460;SDS011;69977;49.414;11.010;2023-11-19T08:58:30;1.53;;;1.13;;
54460;SDS011;69977;49.414;11.010;2023-11-19T09:00:56;1.57;;;1.00;;
54460;SDS011;69977;49.414;11.010;2023-11-19T09:03:22;1.53;;;0.90;;
54460;SDS011;69977;49.414;11.010;2023-11-19T09:05:49;0.83;;;0.83;;
54460;SDS011;69977;49.414;11.010;2023-11-19T09:08:15;1.13;;;0.87;;
54460;SDS011;69977;49.414;11.010;2023-11-19T09:10:40;2.27;;;0.93;;
54460;SDS011;69977;49.414;11.010;2023-11-19T09:13:06;1.23;;;0.90;;
54460;SDS011;69977;49.414;11.010;2023-11-19T09:15:33;0.70;;;0.70;;
54460;SDS011;69977;49.414;11.010;2023-11-19T09:17:58;1.20;;;0.80;;
54460;SDS011;69977;49.414;11.010;2023-11-19T09:20:24;1.67;;;0.90;;
54460;SDS011;69977;49.414;11.010;2023-11-19T09:22:50;2.30;;;0.70;;
54460;SDS011;69977;49.414;11.010;2023-11-19T09:25:16;1.10;;;0.73;;
54460;SDS011;69977;49.414;11.010;2023-11-19T09:27:42;1.03;;;0.50;;
54460;SDS011;69977;49.414;11.010;2023-11-19T09:30:09;0.73;;;0.47;;
54460;SDS011;69977;49.414;11.010;2023-11-19T09:32:35;1.63;;;0.90;;
54460;SDS011;69977;49.414;11.010;2023-11-19T09:35:03;0.57;;;0.50;;
54460;SDS011;69977;49.414;11.010;2023-11-19T09:37:29;2.03;;;0.80;;
54460;SDS011;69977;49.414;11.010;2023-11-19T09:39:55;2.33;;;0.70;;
54460;SDS011;69977;49.414;11.010;2023-11-19T09:42:21;1.33;;;0.70;;
54460;SDS011;69977;49.414;11.010;2023-11-19T09:44:49;0.83;;;0.80;;
54460;SDS011;69977;49.414;11.010;2023-11-19T09:47:15;1.03;;;0.93;;
54460;SDS011;69977;49.414;11.010;2023-11-19T09:49:44;0.50;;;0.50;;
54460;SDS011;69977;49.414;11.010;2023-11-19T09:52:10;0.57;;;0.57;;
54460;SDS011;69977;49.414;11.010;2023-11-19T09:54:36;1.00;;;0.80;;
54460;SDS011;69977;49.414;11.010;2023-11-19T09:57:02;1.17;;;0.67;;
54460;SDS011;69977;49.414;11.010;2023-11-19T09:59:29;1.37;;;0.70;;
54460;SDS011;69977;49.414;11.010;2023-11-19T10:01:56;1.80;;;0.70;;
54460;SDS011;69977;49.414;11.010;2023-11-19T10:04:22;2.07;;;0.77;;
54460;SDS011;69977;49.414;11.010;2023-11-19T10:06:51;2.03;;;0.77;;
54460;SDS011;69977;49.414;11.010;2023-11-19T10:09:17;1.27;;;0.67;;
54460;SDS011;69977;49.414;11.010;2023-11-19T10:11:44;0.80;;;0.63;;
54460;SDS011;69977;49.414;11.010;2023-11-19T10:14:09;0.83;;;0.70;;
54460;SDS011;69977;49.414;11.010;2023-11-19T10:16:35;1.40;;;0.67;;
54460;SDS011;69977;49.414;11.010;2023-11-19T10:19:03;1.43;;;0.60;;
54460;SDS011;69977;49.414;11.010;2023-11-19T10:21:28;2.30;;;0.70;;
54460;SDS011;69977;49.414;11.010;2023-11-19T10:23:57;0.73;;;0.73;;
54460;SDS011;69977;49.414;11.010;2023-11-19T10:26:25;0.80;;;0.80;;
54460;SDS011;69977;49.414;11.010;2023-11-19T10:28:51;2.47;;;0.97;;
54460;SDS011;69977;49.414;11.010;2023-11-19T10:31:18;1.00;;;0.40;;
54460;SDS011;69977;49.414;11.010;2023-11-19T10:33:45;2.20;;;0.87;;
54460;SDS011;69977;49.414;11.010;2023-11-19T10:36:12;0.70;;;0.50;;
54460;SDS011;69977;49.414;11.010;2023-11-19T10:38:39;0.90;;;0.50;;
54460;SDS011;69977;49.414;11.010;2023-11-19T10:41:06;0.80;;;0.67;;
54460;SDS011;69977;49.414;11.010;2023-11-19T10:43:42;1.27;;;1.10;;
54460;SDS011;69977;49.414;11.010;2023-11-19T10:46:12;1.63;;;1.00;;
54460;SDS011;69977;49.414;11.010;2023-11-19T10:48:39;0.77;;;0.77;;
54460;SDS011;69977;49.414;11.010;2023-11-19T10:51:06;0.87;;;0.80;;
54460;SDS011;69977;49.414;11.010;2023-11-19T10:53:36;0.93;;;0.70;;
54460;SDS011;69977;49.414;11.010;2023-11-19T10:56:06;0.83;;;0.50;;
54460;SDS011;69977;49.414;11.010;2023-11-19T10:58:36;1.50;;;0.73;;
54460;SDS011;69977;49.414;11.010;2023-11-19T11:01:07;0.77;;;0.77;;
54460;SDS011;69977;49.414;11.010;2023-11-19T11:03:39;0.93;;;0.93;;
54460;SDS011;69977;49.414;11.010;2023-11-19T11:06:05;0.70;;;0.40;;
54460;SDS011;69977;49.414;11.010;2023-11-19T11:08:31;1.20;;;0.80;;
54460;SDS011;69977;49.414;11.010;2023-11-19T11:11:01;1.70;;;0.87;;
54460;SDS011;69977;49.414;11.010;2023-11-19T11:13:29;1.10;;;0.70;;
54460;SDS011;69977;49.414;11.010;2023-11-19T11:15:56;1.97;;;0.90;;
54460;SDS011;69977;49.414;11.010;2023-11-19T11:18:23;1.33;;;0.63;;
54460;SDS011;69977;49.414;11.010;2023-11-19T11:20:54;1.77;;;0.60;;
54460;SDS011;69977;49.414;11.010;2023-11-19T11:23:47;2.47;;;0.90;;
54460;SDS011;69977;49.414;11.010;2023-11-19T11:29:01;0.90;;;0.60;;
54460;SDS011;69977;49.414;11.010;2023-11-19T11:31:39;1.67;;;0.77;;
54460;SDS011;69977;49.414;11.010;2023-11-19T11:37:19;0.63;;;0.50;;
54460;SDS011;69977;49.414;11.010;2023-11-19T11:40:03;1.10;;;0.63;;
54460;SDS011;69977;49.414;11.010;2023-11-19T11:42:36;0.60;;;0.60;;
54460;SDS011;69977;49.414;11.010;2023-11-19T11:45:08;1.53;;;0.70;;
54460;SDS011;69977;49.414;11.010;2023-11-19T11:48:20;4.00;;;1.07;;
54460;SDS011;69977;49.414;11.010;2023-11-19T11:50:21;1.93;;;0.90;;
54460;SDS011;69977;49.414;11.010;2023-11-19T11:55:35;1.30;;;0.83;;
54460;SDS011;69977;49.414;11.010;2023-11-19T11:58:17;3.60;;;1.07;;
54460;SDS011;69977;49.414;11.010;2023-11-19T12:00:47;2.03;;;0.70;;
54460;SDS011;69977;49.414;11.010;2023-11-19T12:03:13;2.10;;;1.23;;
54460;SDS011;69977;49.414;11.010;2023-11-19T12:05:43;1.10;;;1.00;;
54460;SDS011;69977;49.414;11.010;2023-11-19T12:08:10;1.00;;;1.00;;
54460;SDS011;69977;49.414;11.010;2023-11-19T12:10:45;1.50;;;0.80;;
54460;SDS011;69977;49.414;11.010;2023-11-19T12:13:18;2.00;;;1.30;;
54460;SDS011;69977;49.414;11.010;2023-11-19T12:18:28;1.70;;;0.93;;
54460;SDS011;69977;49.414;11.010;2023-11-19T12:20:56;1.23;;;1.03;;
54460;SDS011;69977;49.414;11.010;2023-11-19T12:23:22;2.97;;;0.80;;
54460;SDS011;69977;49.414;11.010;2023-11-19T12:25:48;2.37;;;0.97;;
54460;SDS011;69977;49.414;11.010;2023-11-19T12:28:15;1.07;;;0.73;;
54460;SDS011;69977;49.414;11.010;2023-11-19T12:30:42;2.07;;;1.13;;
54460;SDS011;69977;49.414;11.010;2023-11-19T12:33:13;2.00;;;0.50;;
54460;SDS011;69977;49.414;11.010;2023-11-19T12:35:40;2.77;;;0.83;;
54460;SDS011;69977;49.414;11.010;2023-11-19T12:38:06;6.13;;;2.93;;
54460;SDS011;69977;49.414;11.010;2023-11-19T12:40:31;2.30;;;2.10;;
54460;SDS011;69977;49.414;11.010;2023-11-19T12:42:57;10.97;;;9.87;;
54460;SDS011;69977;49.414;11.010;2023-11-19T12:45:24;2.43;;;1.83;;
54460;SDS011;69977;49.414;11.010;2023-11-19T12:48:05;4.40;;;2.67;;
54460;SDS011;69977;49.414;11.010;2023-11-19T12:53:21;1.13;;;0.77;;
54460;SDS011;69977;49.414;11.010;2023-11-19T12:55:48;2.37;;;0.50;;
54460;SDS011;69977;49.414;11.010;2023-11-19T12:58:33;0.90;;;0.50;;
54460;SDS011;69977;49.414;11.010;2023-11-19T13:01:05;3.93;;;0.80;;
54460;SDS011;69977;49.414;11.010;2023-11-19T13:03:32;3.37;;;1.00;;
54460;SDS011;69977;49.414;11.010;2023-11-19T13:06:02;1.40;;;0.80;;
54460;SDS011;69977;49.414;11.010;2023-11-19T13:08:29;2.60;;;0.70;;
54460;SDS011;69977;49.414;11.010;2023-11-19T13:11:01;2.57;;;0.70;;
54460;SDS011;69977;49.414;11.010;2023-11-19T13:13:27;1.00;;;0.60;;
54460;SDS011;69977;49.414;11.010;2023-11-19T13:15:53;0.60;;;0.60;;
54460;SDS011;69977;49.414;11.010;2023-11-19T13:18:26;1.07;;;0.63;;
54460;SDS011;69977;49.414;11.010;2023-11-19T13:20:52;2.03;;;0.90;;
54460;SDS011;69977;49.414;11.010;2023-11-19T13:23:17;0.60;;;0.50;;
54460;SDS011;69977;49.414;11.010;2023-11-19T13:25:43;1.60;;;0.70;;
54460;SDS011;69977;49.414;11.010;2023-11-19T13:28:10;3.67;;;0.80;;
54460;SDS011;69977;49.414;11.010;2023-11-19T13:30:36;2.37;;;0.77;;
54460;SDS011;69977;49.414;11.010;2023-11-19T13:33:02;2.60;;;0.93;;
54460;SDS011;69977;49.414;11.010;2023-11-19T13:35:27;1.23;;;0.83;;
54460;SDS011;69977;49.414;11.010;2023-11-19T13:37:53;1.30;;;0.60;;
54460;SDS011;69977;49.414;11.010;2023-11-19T13:40:19;1.17;;;0.87;;
54460;SDS011;69977;49.414;11.010;2023-11-19T13:42:47;2.23;;;0.80;;
54460;SDS011;69977;49.414;11.010;2023-11-19T13:45:13;1.90;;;1.17;;
54460;SDS011;69977;49.414;11.010;2023-11-19T13:47:40;1.77;;;1.10;;
54460;SDS011;69977;49.414;11.010;2023-11-19T13:50:10;2.17;;;1.07;;
54460;SDS011;69977;49.414;11.010;2023-11-19T13:52:37;2.37;;;1.30;;
54460;SDS011;69977;49.414;11.010;2023-11-19T13:55:05;6.00;;;1.47;;
54460;SDS011;69977;49.414;11.010;2023-11-19T13:57:32;1.40;;;1.07;;
54460;SDS011;69977;49.414;11.010;2023-11-19T13:59:57;2.57;;;0.93;;
54460;SDS011;69977;49.414;11.010;2023-11-19T14:02:23;2.57;;;1.03;;
54460;SDS011;69977;49.414;11.010;2023-11-19T14:04:49;0.90;;;0.80;;
54460;SDS011;69977;49.414;11.010;2023-11-19T14:07:15;1.37;;;0.90;;
54460;SDS011;69977;49.414;11.010;2023-11-19T14:09:43;0.83;;;0.80;;
54460;SDS011;69977;49.414;11.010;2023-11-19T14:12:10;1.17;;;0.90;;
54460;SDS011;69977;49.414;11.010;2023-11-19T14:14:38;2.17;;;0.97;;
54460;SDS011;69977;49.414;11.010;2023-11-19T14:17:04;2.40;;;1.00;;
54460;SDS011;69977;49.414;11.010;2023-11-19T14:19:30;2.73;;;0.87;;
54460;SDS011;69977;49.414;11.010;2023-11-19T14:21:56;0.97;;;0.87;;
54460;SDS011;69977;49.414;11.010;2023-11-19T14:24:22;1.97;;;0.97;;
54460;SDS011;69977;49.414;11.010;2023-11-19T14:26:49;1.90;;;1.00;;
54460;SDS011;69977;49.414;11.010;2023-11-19T14:29:16;1.50;;;0.67;;
54460;SDS011;69977;49.414;11.010;2023-11-19T14:31:42;2.37;;;0.80;;
54460;SDS011;69977;49.414;11.010;2023-11-19T14:34:08;3.73;;;1.40;;
54460;SDS011;69977;49.414;11.010;2023-11-19T14:36:34;0.70;;;0.70;;
54460;SDS011;69977;49.414;11.010;2023-11-19T14:39:00;2.13;;;0.70;;
54460;SDS011;69977;49.414;11.010;2023-11-19T14:41:26;0.77;;;0.50;;
54460;SDS011;69977;49.414;11.010;2023-11-19T14:43:52;0.63;;;0.63;;
54460;SDS011;69977;49.414;11.010;2023-11-19T14:46:18;1.23;;;0.90;;
54460;SDS011;69977;49.414;11.010;2023-11-19T14:48:43;0.97;;;0.83;;